Time;durP1;ratioP1;P1;durP2;ratioP2;P2;SDS_P1;SDS_P2;PMS_P1;PMS_P2;Temp;Humidity;BMP_temperature;BMP_pressure;BME280_temperature;BME280_humidity;BME280_pressure;Samples;Min_cycle;Max_cycle;Signal;HPM_P1;HPM_P2
2021/04/20 00:01:40;;;;;;;31.55;17.15;;;;;;;6.44;82.41;102169.50;5038912;28;20084;-71
2021/04/20 00:04:08;;;;;;;40.55;20.80;;;;;;;6.45;83.83;102179.25;5042728;28;20397;-72
2021/04/20 00:06:35;;;;;;;38.50;19.52;;;;;;;6.43;84.22;102174.78;5038028;28;20515;-71
2021/04/20 00:09:06;;;;;;;38.75;18.98;;;;;;;6.37;84.50;102170.34;5041553;28;20080;-71
2021/04/20 00:11:32;;;;;;;34.03;17.27;;;;;;;6.33;83.01;102172.09;5053218;28;20155;-72
2021/04/20 00:14:00;;;;;;;38.67;18.00;;;;;;;6.29;83.65;102166.75;5039231;28;20421;-71
2021/04/20 00:16:27;;;;;;;30.63;16.45;;;;;;;6.27;84.61;102164.09;5040433;28;20057;-72
2021/04/20 00:18:54;;;;;;;38.03;19.73;;;;;;;6.27;84.97;102169.38;5039454;28;20179;-72
2021/04/20 00:21:22;;;;;;;42.28;19.75;;;;;;;6.22;85.33;102163.16;5040313;28;20141;-72
2021/04/20 00:23:49;;;;;;;33.25;16.15;;;;;;;6.14;83.87;102155.13;5040511;28;20738;-72
2021/04/20 00:26:16;;;;;;;36.05;18.27;;;;;;;6.12;83.87;102158.69;5038556;28;20122;-72
2021/04/20 00:28:43;;;;;;;33.88;18.05;;;;;;;6.08;83.89;102154.22;5042092;28;20064;-74
2021/04/20 00:31:11;;;;;;;37.65;19.55;;;;;;;6.06;84.28;102159.53;5039778;28;20471;-73
2021/04/20 00:33:40;;;;;;;38.70;20.15;;;;;;;6.04;84.29;102153.31;5041979;28;20144;-71
2021/04/20 00:36:07;;;;;;;37.85;18.70;;;;;;;5.97;84.94;102155.00;5041374;28;20148;-72
2021/04/20 00:38:36;;;;;;;39.75;20.83;;;;;;;5.96;84.38;102150.59;5039076;28;20057;-71
2021/04/20 00:41:05;;;;;;;39.10;19.13;;;;;;;5.92;83.43;102155.81;5038991;28;20068;-73
2021/04/20 00:43:34;;;;;;;33.75;18.23;;;;;;;5.87;84.88;102150.47;5053242;28;20056;-72
2021/04/20 00:46:01;;;;;;;40.00;20.65;;;;;;;5.87;85.87;102155.78;5039121;28;20065;-71
2021/04/20 00:48:28;;;;;;;43.40;19.60;;;;;;;5.88;86.04;102152.28;5039652;28;20053;-71
2021/04/20 00:50:55;;;;;;;37.85;18.25;;;;;;;5.83;84.86;102148.69;5042966;28;20159;-72
2021/04/20 00:53:22;;;;;;;42.70;20.80;;;;;;;5.82;86.00;102154.84;5038699;28;20152;-72
2021/04/20 00:55:49;;;;;;;44.20;20.00;;;;;;;5.76;85.11;102147.75;5040458;28;20056;-74
2021/04/20 00:58:16;;;;;;;42.15;21.30;;;;;;;5.73;85.10;102146.84;5039329;28;20420;-73
2021/04/20 01:00:43;;;;;;;37.10;18.48;;;;;;;5.69;85.55;102145.06;5041188;28;20063;-74
2021/04/20 01:03:10;;;;;;;36.38;17.30;;;;;;;5.63;84.98;102140.56;5034124;28;20114;-72
2021/04/20 01:05:38;;;;;;;48.30;22.48;;;;;;;5.62;86.51;102141.47;5038792;28;20414;-72
2021/04/20 01:08:08;;;;;;;50.50;23.90;;;;;;;5.65;87.53;102144.09;5036257;28;20179;-72
2021/04/20 01:10:39;;;;;;;44.50;21.60;;;;;;;5.57;86.43;102140.53;5041817;28;20065;-72
2021/04/20 01:13:06;;;;;;;45.45;23.90;;;;;;;5.61;87.35;102137.91;5039934;28;20088;-72
2021/04/20 01:15:34;;;;;;;47.70;22.13;;;;;;;5.58;86.65;102131.69;5040081;28;20056;-72
2021/04/20 01:18:12;;;;;;;53.08;23.88;;;;;;;5.57;86.64;102135.22;5056267;28;20160;-72
2021/04/20 01:20:42;;;;;;;41.03;19.58;;;;;;;5.52;86.75;102129.88;5039603;28;20087;-72
2021/04/20 01:23:12;;;;;;;47.28;23.13;;;;;;;5.53;87.46;102136.06;5040663;28;20080;-72
2021/04/20 01:25:40;;;;;;;47.67;23.05;;;;;;;5.53;88.01;102128.13;5037798;28;20088;-73
2021/04/20 01:28:08;;;;;;;53.75;24.48;;;;;;;5.53;87.77;102134.28;5040524;28;20064;-72
2021/04/20 01:30:36;;;;;;;49.35;23.08;;;;;;;5.46;87.43;102135.09;5038808;28;20061;-73
2021/04/20 01:33:05;;;;;;;51.58;24.10;;;;;;;5.47;87.14;102125.44;5040148;28;20063;-72
2021/04/20 01:35:34;;;;;;;46.35;21.50;;;;;;;5.45;87.27;102132.44;5039286;28;20063;-72
2021/04/20 01:38:02;;;;;;;50.55;21.33;;;;;;;5.37;86.72;102129.75;5039366;28;20064;-74
2021/04/20 01:40:30;;;;;;;58.17;25.25;;;;;;;5.39;87.98;102125.34;5037384;28;20059;-74
2021/04/20 01:42:59;;;;;;;51.28;21.13;;;;;;;5.31;87.24;102113.78;5038821;28;20063;-74
2021/04/20 01:45:27;;;;;;;49.78;23.17;;;;;;;5.29;86.82;102123.47;5036841;28;20071;-74
2021/04/20 01:47:55;;;;;;;55.67;23.42;;;;;;;5.30;87.90;102130.56;5037365;28;20391;-73
2021/04/20 01:50:23;;;;;;;55.08;24.17;;;;;;;5.25;87.21;102130.50;5038088;28;20056;-74
2021/04/20 01:52:51;;;;;;;55.83;25.17;;;;;;;5.23;87.73;102130.47;5040098;28;20063;-74
2021/04/20 01:55:18;;;;;;;51.55;21.65;;;;;;;5.20;87.67;102126.91;5038141;28;20060;-74
2021/04/20 01:57:49;;;;;;;55.08;24.23;;;;;;;5.18;86.86;102128.66;5039915;28;20072;-74
2021/04/20 02:00:20;;;;;;;51.10;23.05;;;;;;;5.14;87.17;102122.47;5036911;28;20292;-74
2021/04/20 02:02:48;;;;;;;50.20;20.85;;;;;;;5.12;86.67;102128.59;5041312;28;20057;-74
2021/04/20 02:05:15;;;;;;;51.90;24.77;;;;;;;5.12;88.49;102126.81;5040103;28;20053;-74
2021/04/20 02:07:43;;;;;;;55.50;23.20;;;;;;;5.10;88.66;102125.91;5035575;28;20402;-74
2021/04/20 02:10:13;;;;;;;52.13;24.60;;;;;;;5.08;88.98;102122.38;5038700;28;20067;-74
2021/04/20 02:12:42;;;;;;;48.20;21.40;;;;;;;5.08;87.96;102124.13;5035799;28;20056;-72
2021/04/20 02:15:12;;;;;;;47.92;22.00;;;;;;;5.04;88.67;102121.47;5039633;28;20155;-73
2021/04/20 02:17:42;;;;;;;56.10;24.42;;;;;;;5.02;88.27;102120.56;5037402;28;20052;-74
2021/04/20 02:20:12;;;;;;;48.58;22.98;;;;;;;5.00;88.58;102119.63;5040201;28;20341;-74
2021/04/20 02:22:40;;;;;;;53.60;23.42;;;;;;;5.00;89.01;102124.03;5036359;28;20068;-74
2021/04/20 02:25:08;;;;;;;57.95;22.70;;;;;;;4.95;88.47;102121.34;5037469;28;20080;-74
2021/04/20 02:27:36;;;;;;;59.80;26.25;;;;;;;4.94;88.45;102124.88;5035022;28;20053;-72
2021/04/20 02:30:04;;;;;;;56.28;25.67;;;;;;;4.96;89.79;102111.66;5038397;28;20129;-72
2021/04/20 02:32:32;;;;;;;55.97;22.88;;;;;;;4.95;89.40;102121.34;5033310;28;20321;-74
2021/04/20 02:35:00;;;;;;;62.00;26.40;;;;;;;4.96;90.09;102119.59;5040064;28;20072;-74
2021/04/20 02:37:28;;;;;;;59.42;27.95;;;;;;;4.93;89.66;102125.72;5037798;28;20053;-72
2021/04/20 02:39:57;;;;;;;62.13;26.77;;;;;;;4.93;89.87;102112.50;5037279;28;20540;-73
2021/04/20 02:42:25;;;;;;;58.15;26.70;;;;;;;4.92;90.07;102113.38;5054139;28;20230;-72
2021/04/20 02:44:53;;;;;;;54.60;23.55;;;;;;;4.83;89.37;102106.19;5039630;28;20092;-74
2021/04/20 02:47:21;;;;;;;53.58;23.08;;;;;;;4.81;89.38;102110.59;5036897;28;20059;-72
2021/04/20 02:49:48;;;;;;;49.33;23.08;;;;;;;4.76;88.90;102108.78;5037133;28;20057;-74
2021/04/20 02:52:17;;;;;;;55.17;22.80;;;;;;;4.71;88.61;102111.34;5040678;28;20340;-73
2021/04/20 02:54:44;;;;;;;65.18;28.67;;;;;;;4.75;89.77;102120.22;5036774;28;20107;-71
2021/04/20 02:57:13;;;;;;;56.78;24.10;;;;;;;4.69;89.18;102121.03;5038183;28;20142;-71
2021/04/20 02:59:41;;;;;;;61.05;27.85;;;;;;;4.69;90.24;102110.44;5033338;28;20069;-72
2021/04/20 03:02:10;;;;;;;63.63;29.40;;;;;;;4.70;90.46;102114.88;5035872;28;20053;-73
2021/04/20 03:04:38;;;;;;;65.90;29.35;;;;;;;4.67;90.75;102109.56;5034543;28;20069;-74
2021/04/20 03:07:06;;;;;;;61.45;25.77;;;;;;;4.64;89.95;102114.78;5032405;28;20075;-74
2021/04/20 03:09:38;;;;;;;54.28;25.58;;;;;;;4.61;89.99;102112.09;5036875;28;20097;-74
2021/04/20 03:12:06;;;;;;;66.55;29.63;;;;;;;4.63;90.49;102107.72;5035944;28;20087;-73
2021/04/20 03:14:34;;;;;;;63.42;27.58;;;;;;;4.57;89.53;102105.00;5033504;28;20065;-75
2021/04/20 03:17:01;;;;;;;71.95;30.67;;;;;;;4.61;90.15;102106.81;5040080;28;20059;-72
2021/04/20 03:19:28;;;;;;;63.28;29.45;;;;;;;4.48;89.44;102093.44;5056759;28;20071;-72
2021/04/20 03:21:56;;;;;;;68.65;30.60;;;;;;;4.56;90.89;102103.22;5044322;28;20057;-73
2021/04/20 03:25:03;;;;;;;71.82;30.73;;;;;;;4.49;90.27;102096.97;5039084;28;20331;-71
2021/04/20 03:27:30;;;;;;;71.47;32.35;;;;;;;4.48;90.36;102101.38;5053567;28;20052;-72
2021/04/20 03:29:57;;;;;;;66.47;29.45;;;;;;;4.41;90.10;102090.69;5040078;28;20359;-71
2021/04/20 03:32:25;;;;;;;75.65;33.60;;;;;;;4.48;90.58;102092.56;5041704;28;20575;-72
2021/04/20 03:34:57;;;;;;;77.57;33.35;;;;;;;4.45;89.89;102089.88;5039391;28;20202;-72
2021/04/20 03:37:32;;;;;;;68.07;31.30;;;;;;;4.44;90.51;102088.09;5056071;28;20067;-74
2021/04/20 03:40:03;;;;;;;79.85;35.40;;;;;;;4.52;91.75;102097.00;5040405;28;20065;-74
2021/04/20 03:42:34;;;;;;;64.03;27.83;;;;;;;4.46;90.91;102092.53;5041550;28;20379;-74
2021/04/20 03:45:03;;;;;;;87.80;36.13;;;;;;;4.54;91.45;102097.03;5040987;28;20076;-74
2021/04/20 03:47:35;;;;;;;77.85;35.42;;;;;;;4.54;91.86;102092.63;5040424;28;20591;-74
2021/04/20 03:50:07;;;;;;;78.25;31.67;;;;;;;4.46;90.49;102095.19;5043759;28;20366;-74
2021/04/20 03:52:39;;;;;;;82.20;36.42;;;;;;;4.45;91.09;102100.44;5038995;28;20054;-74
2021/04/20 03:55:12;;;;;;;89.13;37.42;;;;;;;4.46;91.75;102087.25;5037936;28;20330;-71
2021/04/20 03:57:42;;;;;;;74.93;32.33;;;;;;;4.41;91.21;102090.69;5040201;28;20088;-72
2021/04/20 04:00:13;;;;;;;76.13;32.38;;;;;;;4.34;90.50;102086.19;5040953;28;20337;-73
2021/04/20 04:02:43;;;;;;;80.78;36.40;;;;;;;4.35;91.83;102094.16;5040188;28;20147;-73
2021/04/20 04:05:15;;;;;;;77.15;34.30;;;;;;;4.29;91.34;102091.41;5042315;28;20373;-72
2021/04/20 04:07:44;;;;;;;78.93;33.47;;;;;;;4.22;90.63;102090.47;5038657;28;20066;-72
2021/04/20 04:10:14;;;;;;;68.20;30.45;;;;;;;4.17;90.15;102089.50;5042199;28;20061;-73
2021/04/20 04:12:44;;;;;;;84.93;35.58;;;;;;;4.20;91.61;102086.88;5035391;28;20144;-72
2021/04/20 04:15:14;;;;;;;84.88;36.10;;;;;;;4.23;92.32;102086.06;5041958;28;20060;-71
2021/04/20 04:17:45;;;;;;;83.97;36.80;;;;;;;4.19;91.81;102085.13;5039679;28;20107;-73
2021/04/20 04:20:13;;;;;;;86.68;38.38;;;;;;;4.15;91.56;102093.84;5043422;28;20130;-72
2021/04/20 04:22:49;;;;;;;81.95;36.55;;;;;;;4.13;91.53;102094.72;5036509;28;20067;-74
2021/04/20 04:25:20;;;;;;;65.25;30.60;;;;;;;4.10;91.49;102091.19;5043853;28;20699;-74
2021/04/20 04:27:50;;;;;;;76.13;35.10;;;;;;;4.08;91.28;102097.28;5054065;28;20480;-74
2021/04/20 04:30:21;;;;;;;71.75;31.23;;;;;;;4.10;92.33;102092.91;5053064;28;20171;-77
2021/04/20 04:32:49;;;;;;;86.32;38.70;;;;;;;4.13;92.43;102092.94;5040003;28;20061;-74
2021/04/20 04:35:18;;;;;;;82.50;35.25;;;;;;;4.10;91.98;102091.19;5040996;28;20060;-74
2021/04/20 04:37:48;;;;;;;95.80;40.40;;;;;;;4.11;92.12;102092.06;5038329;28;20160;-75
2021/04/20 04:40:18;;;;;;;96.22;38.85;;;;;;;4.14;92.67;102093.84;5039957;28;20135;-74
2021/04/20 04:42:45;;;;;;;79.10;37.13;;;;;;;4.08;92.11;102089.34;5038938;28;20084;-74
2021/04/20 04:45:13;;;;;;;86.95;37.00;;;;;;;4.15;92.27;102085.94;5038705;28;20357;-74
2021/04/20 04:47:41;;;;;;;75.93;34.47;;;;;;;4.11;91.86;102087.66;5054211;28;20064;-74
2021/04/20 04:50:10;;;;;;;89.30;37.80;;;;;;;4.11;92.18;102090.28;5039357;28;20063;-74
2021/04/20 04:52:39;;;;;;;83.07;38.00;;;;;;;4.11;92.15;102094.69;5038739;28;20144;-75
2021/04/20 04:55:08;;;;;;;81.78;33.92;;;;;;;4.07;92.02;102091.13;5036999;28;20054;-74
2021/04/20 04:57:38;;;;;;;78.70;35.13;;;;;;;4.07;91.22;102093.75;5041551;28;20053;-75
2021/04/20 05:00:08;;;;;;;80.90;37.33;;;;;;;4.06;91.69;102088.47;5034739;28;20092;-73
2021/04/20 05:02:37;;;;;;;73.28;32.78;;;;;;;4.06;91.58;102088.47;5056590;28;20084;-72
2021/04/20 05:05:05;;;;;;;74.82;32.42;;;;;;;4.09;91.55;102093.78;5035254;28;20088;-72
2021/04/20 05:07:32;;;;;;;84.35;36.33;;;;;;;4.07;91.60;102091.13;5040279;28;20059;-73
2021/04/20 05:10:01;;;;;;;78.25;34.92;;;;;;;4.11;91.70;102098.22;5037866;28;20071;-75
2021/04/20 05:12:30;;;;;;;76.88;33.90;;;;;;;4.18;92.02;102098.31;5039848;28;20190;-72
2021/04/20 05:15:04;;;;;;;75.03;33.10;;;;;;;4.21;91.96;102096.59;5036234;28;20067;-72
2021/04/20 05:17:35;;;;;;;77.78;34.78;;;;;;;4.28;91.61;102094.94;5042170;28;20155;-73
2021/04/20 05:20:03;;;;;;;81.05;37.30;;;;;;;4.38;91.65;102101.25;5035640;28;20057;-72
2021/04/20 05:22:30;;;;;;;79.03;36.03;;;;;;;4.48;91.59;102103.16;5039124;28;20082;-73
2021/04/20 05:24:58;;;;;;;81.25;36.15;;;;;;;4.60;91.59;102107.72;5034510;28;20092;-74
2021/04/20 05:27:25;;;;;;;81.57;35.35;;;;;;;4.68;91.22;102103.38;5038820;28;20463;-73
2021/04/20 05:29:53;;;;;;;76.78;33.67;;;;;;;4.79;90.62;102098.25;5038331;28;20444;-75
2021/04/20 05:32:21;;;;;;;76.72;32.35;;;;;;;4.90;90.29;102103.63;5037383;28;20085;-74
2021/04/20 05:34:50;;;;;;;78.22;35.80;;;;;;;5.09;90.35;102097.69;5039879;28;20102;-76
2021/04/20 05:37:29;;;;;;;80.43;37.30;;;;;;;5.27;89.92;102096.13;5036546;28;20065;-74
2021/04/20 05:40:03;;;;;;;74.72;33.85;;;;;;;5.48;89.55;102101.59;5041885;28;20436;-74
2021/04/20 05:42:30;;;;;;;;;;;;;;;5.70;89.14;102107.97;5036574;28;20467;-74
2021/04/20 05:44:58;;;;;;;68.57;32.60;;;;;;;5.88;88.61;102103.72;5040732;28;19983;-74
2021/04/20 05:47:26;;;;;;;79.68;37.03;;;;;;;6.08;88.07;102112.72;5035967;28;20470;-73
2021/04/20 05:49:56;;;;;;;64.80;32.58;;;;;;;6.30;87.18;102107.53;5040407;28;20098;-74
2021/04/20 05:52:23;;;;;;;64.25;31.10;;;;;;;6.50;86.74;102097.03;5038623;28;20065;-73
2021/04/20 05:54:54;;;;;;;59.70;29.67;;;;;;;6.70;85.93;102105.97;5037428;28;20065;-75
2021/04/20 05:57:21;;;;;;;71.68;34.50;;;;;;;6.87;85.10;102102.50;5035659;28;20334;-73
2021/04/20 05:59:50;;;;;;;75.03;32.28;;;;;;;7.13;84.88;102105.22;5035867;28;20506;-72
2021/04/20 06:02:18;;;;;;;73.28;36.75;;;;;;;7.35;85.08;102106.16;5037059;28;20459;-73
2021/04/20 06:04:48;;;;;;;79.85;38.65;;;;;;;7.60;84.29;102099.09;5038414;28;20060;-74
2021/04/20 06:07:15;;;;;;;79.93;38.17;;;;;;;7.85;83.49;102099.97;5037544;28;20300;-75
2021/04/20 06:09:44;;;;;;;82.68;38.50;;;;;;;8.12;82.88;102099.94;5037064;28;20092;-75
2021/04/20 06:12:12;;;;;;;77.03;37.20;;;;;;;8.33;82.83;102099.03;5035643;28;20052;-74
2021/04/20 06:14:40;;;;;;;70.70;33.65;;;;;;;8.53;82.15;102101.63;5040324;28;20440;-74
2021/04/20 06:17:08;;;;;;;81.78;40.22;;;;;;;8.67;81.50;102101.63;5055035;28;20061;-74
2021/04/20 06:19:36;;;;;;;76.55;37.10;;;;;;;8.91;80.74;102101.47;5037068;28;20442;-73
2021/04/20 06:22:06;;;;;;;70.03;34.72;;;;;;;9.19;80.72;102106.66;5037928;28;20456;-72
2021/04/20 06:24:33;;;;;;;71.32;36.80;;;;;;;9.34;79.82;102103.88;5038388;28;20057;-73
2021/04/20 06:27:01;;;;;;;64.85;34.88;;;;;;;9.50;79.08;102099.34;5036840;28;20056;-73
2021/04/20 06:29:28;;;;;;;73.63;37.80;;;;;;;9.68;79.09;102095.63;5030517;28;20124;-73
2021/04/20 06:31:56;;;;;;;64.80;37.22;;;;;;;9.84;77.60;102092.84;5036784;28;20056;-72
2021/04/20 06:34:26;;;;;;;66.03;35.75;;;;;;;9.81;77.54;102096.44;5038981;28;20148;-72
2021/04/20 06:36:57;;;;;;;63.03;35.00;;;;;;;9.89;77.51;102101.69;5040867;28;20191;-72
2021/04/20 06:39:25;;;;;;;65.25;34.85;;;;;;;9.87;77.28;102106.13;5039650;28;20061;-72
2021/04/20 06:41:55;;;;;;;68.43;35.53;;;;;;;10.04;76.48;102097.97;5039984;28;20062;-73
2021/04/20 06:44:25;;;;;;;62.97;36.15;;;;;;;10.26;75.75;102095.97;5038033;28;20065;-73
2021/04/20 06:46:57;;;;;;;62.38;32.97;;;;;;;10.57;74.82;102098.34;5037169;28;20053;-75
2021/04/20 06:49:30;;;;;;;63.95;33.95;;;;;;;10.81;73.85;102092.69;5041537;28;20053;-72
2021/04/20 06:52:02;;;;;;;60.67;34.70;;;;;;;10.91;72.67;102095.25;5031385;28;20476;-72
2021/04/20 06:54:35;;;;;;;57.55;32.22;;;;;;;11.13;73.20;102090.47;5038634;28;20408;-72
2021/04/20 06:57:12;;;;;;;64.97;35.30;;;;;;;11.29;72.43;102092.03;5036906;28;20363;-74
2021/04/20 06:59:47;;;;;;;57.95;33.90;;;;;;;11.11;71.21;102095.84;5038529;28;20061;-74
2021/04/20 07:02:24;;;;;;;56.72;30.92;;;;;;;11.36;72.06;102087.47;5038045;28;20467;-74
2021/04/20 07:04:56;;;;;;;63.15;34.72;;;;;;;11.80;71.19;102082.28;5039981;28;20056;-72
2021/04/20 07:07:37;;;;;;;63.60;34.58;;;;;;;11.77;70.71;102089.47;5037968;28;20477;-73
2021/04/20 07:10:12;;;;;;;57.38;32.40;;;;;;;11.89;68.87;102088.38;5039960;28;20058;-73
2021/04/20 07:12:41;;;;;;;59.05;31.45;;;;;;;12.00;68.74;102087.31;5037598;28;20179;-72
2021/04/20 07:15:11;;;;;;;58.28;30.95;;;;;;;12.26;67.10;102084.16;5038525;28;20441;-74
2021/04/20 07:17:58;;;;;;;59.40;33.72;;;;;;;11.98;68.29;102089.16;5039061;28;20056;-72
2021/04/20 07:20:42;;;;;;;53.83;29.92;;;;;;;12.32;67.92;102092.94;5040801;28;20151;-73
2021/04/20 07:23:26;;;;;;;50.15;29.92;;;;;;;12.57;66.95;102087.13;5036541;28;20471;-73
2021/04/20 07:26:17;;;;;;;57.15;33.20;;;;;;;12.91;66.16;102088.22;5039762;28;20049;-73
2021/04/20 07:29:05;;;;;;;50.35;28.85;;;;;;;13.13;65.01;102081.44;5036500;28;20057;-73
2021/04/20 07:31:44;;;;;;;50.90;30.00;;;;;;;13.07;63.74;102077.06;5034861;28;20120;-73
2021/04/20 07:34:20;;;;;;;59.75;32.72;;;;;;;13.17;64.83;102072.41;5037211;28;20076;-73
2021/04/20 07:37:03;;;;;;;50.80;31.40;;;;;;;13.34;63.40;102077.41;5035594;28;20064;-74
2021/04/20 07:39:37;;;;;;;48.50;28.87;;;;;;;13.73;62.40;102076.44;5031990;28;20061;-73
2021/04/20 07:42:19;;;;;;;54.78;31.20;;;;;;;14.06;62.36;102071.13;5034978;28;20057;-73
2021/04/20 07:44:57;;;;;;;52.80;30.38;;;;;;;14.38;62.36;102080.97;5033213;28;20144;-74
2021/04/20 07:47:29;;;;;;;52.05;29.63;;;;;;;14.68;60.27;102071.16;5035150;28;20131;-73
2021/04/20 07:50:01;;;;;;;50.95;31.10;;;;;;;14.60;60.05;102080.38;5033266;28;20091;-74
2021/04/20 07:52:32;;;;;;;54.22;30.30;;;;;;;14.47;58.02;102082.50;5040104;28;20123;-73
2021/04/20 07:55:08;;;;;;;50.05;29.85;;;;;;;14.71;59.22;102080.94;5034813;28;20065;-73
2021/04/20 07:57:39;;;;;;;47.15;28.00;;;;;;;14.91;56.42;102080.34;5054215;28;20060;-73
2021/04/20 08:00:10;;;;;;;52.45;32.85;;;;;;;14.94;57.50;102078.44;5035531;28;20053;-73
2021/04/20 08:02:44;;;;;;;46.35;27.13;;;;;;;15.50;57.86;102063.22;5036336;28;20083;-73
2021/04/20 08:05:18;;;;;;;46.75;28.98;;;;;;;15.55;55.39;102063.97;5040619;28;20052;-73
2021/04/20 08:07:52;;;;;;;47.67;29.08;;;;;;;15.54;54.29;102074.75;5041051;28;20069;-73
2021/04/20 08:10:22;;;;;;;44.45;28.05;;;;;;;15.53;53.72;102068.50;5040607;28;20064;-74
2021/04/20 08:12:55;;;;;;;46.00;28.05;;;;;;;14.80;55.42;102072.63;5040446;28;20106;-75
2021/04/20 08:15:31;;;;;;;46.60;27.77;;;;;;;15.53;55.10;102068.50;5042642;28;20053;-73
2021/04/20 08:18:04;;;;;;;41.65;28.25;;;;;;;15.79;54.48;102062.28;5041204;28;20421;-73
2021/04/20 08:20:38;;;;;;;45.78;28.90;;;;;;;16.13;54.14;102063.78;5041414;28;20089;-73
2021/04/20 08:23:07;;;;;;;42.00;26.75;;;;;;;15.98;53.07;102062.50;5040111;28;20352;-74
2021/04/20 08:25:40;;;;;;;47.72;29.50;;;;;;;15.84;54.16;102062.13;5037920;28;20060;-74
2021/04/20 08:28:16;;;;;;;45.30;27.92;;;;;;;15.84;54.50;102054.03;5042827;28;20061;-76
2021/04/20 08:30:48;;;;;;;47.60;27.83;;;;;;;16.15;53.75;102061.91;5041795;28;20140;-72
2021/04/20 08:33:18;;;;;;;46.25;27.95;;;;;;;16.44;53.16;102060.81;5038988;28;20329;-73
2021/04/20 08:35:48;;;;;;;48.53;29.33;;;;;;;15.64;52.92;102052.88;5038192;28;20071;-73
2021/04/20 08:38:33;;;;;;;41.92;27.75;;;;;;;15.81;52.77;102062.22;5044753;28;20059;-73
2021/04/20 08:41:07;;;;;;;40.42;25.13;;;;;;;16.30;53.04;102067.69;5039278;28;20184;-73
2021/04/20 08:43:47;;;;;;;39.67;26.30;;;;;;;16.31;51.52;102069.41;5044438;28;20079;-74
2021/04/20 08:46:27;;;;;;;38.92;23.92;;;;;;;17.00;50.09;102064.13;5038077;28;20468;-74
2021/04/20 08:49:01;;;;;;;39.55;25.50;;;;;;;16.78;51.05;102066.75;5042081;28;20080;-74
2021/04/20 08:51:36;;;;;;;41.15;23.30;;;;;;;17.08;50.27;102059.31;5037152;28;20053;-73
2021/04/20 08:54:21;;;;;;;;;;;;;;;16.67;50.50;102066.28;5045366;28;20147;-74
2021/04/20 08:56:57;;;;;;;42.80;26.33;;;;;;;16.39;50.76;102062.81;5005556;28;20022;-75
2021/04/20 08:59:55;;;;;;;45.90;28.02;;;;;;;16.88;50.81;102059.22;5041188;28;20060;-75
2021/04/20 09:02:29;;;;;;;44.13;27.58;;;;;;;17.39;51.00;102055.38;5027088;28;20063;-74
2021/04/20 09:05:19;;;;;;;44.88;27.42;;;;;;;17.18;49.90;102054.44;5056092;28;20060;-74
2021/04/20 09:07:56;;;;;;;40.55;27.05;;;;;;;17.14;49.90;102060.88;5038223;28;20140;-74
2021/04/20 09:10:31;;;;;;;41.92;26.85;;;;;;;17.54;49.43;102061.94;5039585;28;20072;-76
2021/04/20 09:13:07;;;;;;;42.67;27.25;;;;;;;17.57;47.85;102059.13;5032416;28;20056;-75
2021/04/20 09:15:39;;;;;;;41.47;25.27;;;;;;;17.55;49.06;102064.59;5041467;28;20089;-75
2021/04/20 09:18:11;;;;;;;44.15;25.60;;;;;;;17.96;46.82;102058.34;5040253;28;20057;-75
2021/04/20 09:20:52;;;;;;;40.03;24.70;;;;;;;17.71;47.02;102063.94;5040826;28;20057;-74
2021/04/20 09:23:27;;;;;;;41.42;26.00;;;;;;;17.68;47.13;102059.53;5032561;28;20064;-75
2021/04/20 09:26:04;;;;;;;39.17;24.85;;;;;;;18.03;45.74;102058.97;5040027;28;20144;-74
2021/04/20 09:28:37;;;;;;;40.72;25.35;;;;;;;17.95;46.59;102056.63;5040349;28;20432;-73
2021/04/20 09:31:12;;;;;;;39.60;25.58;;;;;;;18.63;45.47;102067.09;5039603;28;20207;-73
2021/04/20 09:33:45;;;;;;;40.55;25.25;;;;;;;18.68;45.57;102048.81;5041660;28;20056;-76
2021/04/20 09:36:14;;;;;;;38.63;25.08;;;;;;;18.40;45.01;102047.38;5037406;28;20152;-74
2021/04/20 09:38:43;;;;;;;39.83;24.95;;;;;;;18.11;43.54;102054.13;5041541;28;20306;-72
2021/04/20 09:41:11;;;;;;;36.85;25.30;;;;;;;18.17;44.92;102053.00;5041085;28;20060;-72
2021/04/20 09:43:52;;;;;;;37.25;26.17;;;;;;;17.89;46.33;102055.09;5042948;28;20061;-73
2021/04/20 09:46:33;;;;;;;37.55;26.13;;;;;;;18.00;45.41;102054.59;5041273;28;20065;-74
2021/04/20 09:49:07;;;;;;;41.83;27.33;;;;;;;17.81;47.30;102049.09;5038785;28;20077;-75
2021/04/20 09:51:44;;;;;;;40.05;26.23;;;;;;;17.69;46.76;102049.59;5040193;28;20060;-74
2021/04/20 09:54:17;;;;;;;39.63;24.98;;;;;;;18.26;45.48;102055.25;5035073;28;20065;-72
2021/04/20 09:56:49;;;;;;;36.53;24.38;;;;;;;18.26;45.20;102053.41;5043198;28;20057;-74
2021/04/20 09:59:38;;;;;;;36.50;26.23;;;;;;;18.55;45.89;102050.34;5036832;28;20518;-73
2021/04/20 10:02:22;;;;;;;35.90;23.92;;;;;;;18.56;45.87;102052.97;5043783;28;20148;-73
2021/04/20 10:04:58;;;;;;;39.08;25.00;;;;;;;18.36;44.74;102048.50;5038759;28;20791;-75
2021/04/20 10:07:40;;;;;;;35.80;24.85;;;;;;;18.88;44.37;102050.59;5032020;28;20530;-73
2021/04/20 10:10:15;;;;;;;33.85;21.95;;;;;;;18.40;44.22;102043.81;5034223;28;20063;-73
2021/04/20 10:13:11;;;;;;;32.97;21.63;;;;;;;18.63;42.50;102043.63;5038446;28;20147;-72
2021/04/20 10:15:44;;;;;;;31.20;19.38;;;;;;;18.70;42.43;102048.75;5034273;28;20057;-72
2021/04/20 10:18:31;;;;;;;30.17;19.73;;;;;;;18.79;40.26;102040.19;5036126;28;20061;-72
2021/04/20 10:21:07;;;;;;;27.73;19.35;;;;;;;18.70;41.83;102048.75;5035022;28;20071;-72
2021/04/20 10:23:48;;;;;;;29.90;19.63;;;;;;;19.10;40.31;102046.84;5035049;28;20056;-73
2021/04/20 10:26:22;;;;;;;31.92;20.67;;;;;;;19.51;41.01;102033.09;5036686;28;20067;-74
2021/04/20 10:28:56;;;;;;;26.08;18.27;;;;;;;19.38;39.52;102044.53;5035276;28;20053;-74
2021/04/20 10:31:29;;;;;;;24.40;17.52;;;;;;;19.44;38.93;102035.22;5035072;28;20169;-73
2021/04/20 10:33:58;;;;;;;27.30;18.30;;;;;;;19.32;39.25;102038.56;5036099;28;20063;-74
2021/04/20 10:36:27;;;;;;;24.73;16.83;;;;;;;19.48;38.81;102026.03;5038902;28;20067;-74
2021/04/20 10:38:57;;;;;;;29.40;20.15;;;;;;;18.98;41.01;102032.97;5033923;28;20064;-73
2021/04/20 10:41:27;;;;;;;25.02;18.27;;;;;;;19.32;39.82;102034.00;5040768;28;20057;-72
2021/04/20 10:43:55;;;;;;;29.27;20.15;;;;;;;18.72;39.95;102027.94;5034824;28;20360;-72
2021/04/20 10:46:25;;;;;;;25.83;18.52;;;;;;;19.14;39.41;102026.84;5035058;28;20057;-72
2021/04/20 10:48:54;;;;;;;25.83;18.00;;;;;;;19.65;38.92;102018.84;5038121;28;20056;-73
2021/04/20 10:51:34;;;;;;;25.65;18.83;;;;;;;19.83;38.04;102017.06;5037188;28;20057;-75
2021/04/20 10:54:03;;;;;;;26.60;18.10;;;;;;;19.78;37.31;102018.19;5031382;28;20550;-73
2021/04/20 10:56:32;;;;;;;20.25;14.15;;;;;;;20.00;36.64;102014.31;5037728;28;20117;-74
2021/04/20 10:59:04;;;;;;;22.05;14.32;;;;;;;20.29;36.01;102011.88;5035213;28;20064;-74
2021/04/20 11:01:32;;;;;;;20.92;14.43;;;;;;;19.83;35.91;102009.78;5037788;28;20186;-74
2021/04/20 11:04:02;;;;;;;22.17;15.73;;;;;;;19.95;36.79;102011.88;5030742;28;20091;-75
2021/04/20 11:07:06;;;;;;;24.13;16.27;;;;;;;19.56;36.43;102006.66;5040396;28;20067;-74
2021/04/20 11:09:34;;;;;;;;;;;;;;;19.65;35.84;102006.22;5040539;28;20065;-74
2021/04/20 11:12:12;;;;;;;18.98;12.25;;;;;;;19.96;33.97;101997.34;5038293;28;19935;-74
2021/04/20 11:14:41;;;;;;;14.15;10.27;;;;;;;19.68;34.12;102006.06;5038736;28;20056;-74
2021/04/20 11:17:14;;;;;;;14.15;9.05;;;;;;;19.98;33.19;102004.53;5038872;28;20548;-75
2021/04/20 11:19:45;;;;;;;17.00;11.30;;;;;;;19.65;33.50;102000.78;5038860;28;20288;-74
2021/04/20 11:22:14;;;;;;;15.68;11.45;;;;;;;19.35;34.74;101995.97;5038582;28;20057;-72
2021/04/20 11:24:48;;;;;;;19.52;14.52;;;;;;;19.41;35.00;102000.22;5036131;28;20061;-73
2021/04/20 11:27:20;;;;;;;19.77;14.50;;;;;;;19.70;35.23;101987.88;5034682;28;20053;-72
2021/04/20 11:29:54;;;;;;;19.40;14.50;;;;;;;19.47;35.22;101986.38;5037961;28;20063;-72
2021/04/20 11:32:24;;;;;;;23.52;16.55;;;;;;;19.06;37.13;101986.63;5038508;28;20061;-72
2021/04/20 11:35:05;;;;;;;21.30;14.80;;;;;;;18.99;35.47;101988.75;5035172;28;20087;-71